createdAt,value
2022-10-31T00:01:32.408Z,8.85
2022-10-31T00:03:59.251Z,8.30
2022-10-31T00:06:26.367Z,9.10
2022-10-31T00:08:58.901Z,9.20
2022-10-31T00:11:25.976Z,8.77
2022-10-31T00:13:53.030Z,8.68
2022-10-31T00:16:23.056Z,9.02
2022-10-31T00:18:58.064Z,8.90
2022-10-31T00:21:25.914Z,8.48
2022-10-31T00:23:53.115Z,8.88
2022-10-31T00:26:20.312Z,8.95
2022-10-31T00:28:47.780Z,8.98
2022-10-31T00:31:15.100Z,8.45
2022-10-31T00:33:42.684Z,8.43
2022-10-31T00:36:13.591Z,9.60
2022-10-31T00:38:42.341Z,8.63
2022-10-31T00:41:09.760Z,8.90
2022-10-31T00:43:36.572Z,9.25
2022-10-31T00:46:03.530Z,8.52
2022-10-31T00:48:31.033Z,8.50
2022-10-31T00:50:57.854Z,8.85
2022-10-31T00:53:24.719Z,8.57
2022-10-31T00:55:52.598Z,8.70
2022-10-31T00:58:19.523Z,9.07
2022-10-31T01:00:56.004Z,8.43
2022-10-31T01:03:32.258Z,8.77
2022-10-31T01:06:05.066Z,8.93
2022-10-31T01:08:33.226Z,9.00
2022-10-31T01:11:12.703Z,8.80
2022-10-31T01:13:40.713Z,8.80
2022-10-31T01:16:10.911Z,9.07
2022-10-31T01:18:37.905Z,9.02
2022-10-31T01:21:09.046Z,8.68
2022-10-31T01:23:36.355Z,8.65
2022-10-31T01:26:12.333Z,8.85
2022-10-31T01:28:49.327Z,8.57
2022-10-31T01:31:17.904Z,8.55
2022-10-31T01:33:45.185Z,8.55
2022-10-31T01:36:17.050Z,8.70
2022-10-31T01:38:43.927Z,8.43
2022-10-31T01:41:13.295Z,8.70
2022-10-31T01:43:53.725Z,8.25
2022-10-31T01:46:40.920Z,8.73
2022-10-31T01:49:15.925Z,8.48
2022-10-31T01:51:50.652Z,8.10
2022-10-31T01:54:21.838Z,8.23
2022-10-31T01:56:54.140Z,8.57
2022-10-31T01:59:23.069Z,8.73
2022-10-31T02:01:52.007Z,8.60
2022-10-31T02:04:21.242Z,8.10
2022-10-31T02:06:53.510Z,8.40
2022-10-31T02:09:24.426Z,8.38
2022-10-31T02:11:54.669Z,8.35
2022-10-31T02:14:24.749Z,8.35
2022-10-31T02:16:52.412Z,8.85
2022-10-31T02:19:28.832Z,9.10
2022-10-31T02:22:10.635Z,8.40
2022-10-31T02:25:04.436Z,8.07
2022-10-31T02:27:55.713Z,8.68
2022-10-31T02:33:09.364Z,8.50
2022-10-31T02:35:50.078Z,8.52
2022-10-31T02:39:00.049Z,8.55
2022-10-31T02:41:57.593Z,8.57
2022-10-31T02:45:13.922Z,8.45
2022-10-31T02:47:43.760Z,8.82
2022-10-31T02:50:10.673Z,8.20
2022-10-31T02:52:39.451Z,8.23
2022-10-31T02:55:14.308Z,8.40
2022-10-31T02:57:43.389Z,8.25
2022-10-31T03:00:10.847Z,8.32
2022-10-31T03:02:59.501Z,6.20
2022-10-31T03:05:50.258Z,8.35
2022-10-31T03:08:36.974Z,7.90
2022-10-31T03:11:07.854Z,8.57
2022-10-31T03:13:38.025Z,8.70
2022-10-31T03:16:26.967Z,8.48
2022-10-31T03:19:03.232Z,8.35
2022-10-31T03:21:36.500Z,8.25
2022-10-31T03:24:06.293Z,8.20
2022-10-31T03:26:38.928Z,8.63
2022-10-31T03:29:11.910Z,8.30
2022-10-31T03:31:48.076Z,8.23
2022-10-31T03:34:19.045Z,8.32
2022-10-31T03:36:50.270Z,8.43
2022-10-31T03:39:20.340Z,8.18
2022-10-31T03:41:53.396Z,8.10
2022-10-31T03:44:22.976Z,8.43
2022-10-31T03:46:58.886Z,7.32
2022-10-31T03:49:26.038Z,7.50
2022-10-31T03:52:05.615Z,7.38
2022-10-31T03:54:43.244Z,7.85
2022-10-31T03:57:32.474Z,8.10
2022-10-31T04:00:10.148Z,8.07
2022-10-31T04:02:57.225Z,8.05
2022-10-31T04:05:26.125Z,8.10
2022-10-31T04:07:59.869Z,8.15
2022-10-31T04:10:32.846Z,8.05
2022-10-31T04:13:11.227Z,9.00
2022-10-31T04:15:53.517Z,8.65
2022-10-31T04:18:26.621Z,8.05
2022-10-31T04:21:02.487Z,8.00
2022-10-31T04:23:29.685Z,8.50
2022-10-31T04:25:56.656Z,9.35
2022-10-31T04:28:23.733Z,8.50
2022-10-31T04:30:51.962Z,8.90
2022-10-31T04:33:18.806Z,8.82
2022-10-31T04:35:47.677Z,9.10
2022-10-31T04:38:14.583Z,8.80
2022-10-31T04:40:43.302Z,8.52
2022-10-31T04:43:42.057Z,9.27
2022-10-31T04:46:08.796Z,8.57
2022-10-31T04:48:35.600Z,9.32
2022-10-31T04:51:05.717Z,8.80
2022-10-31T04:53:32.628Z,8.65
2022-10-31T04:56:19.342Z,9.60
2022-10-31T04:58:48.275Z,10.02
2022-10-31T05:01:15.253Z,9.98
2022-10-31T05:03:42.657Z,10.25
2022-10-31T05:06:09.523Z,9.85
2022-10-31T05:08:37.772Z,10.30
2022-10-31T05:11:07.452Z,9.23
2022-10-31T05:13:34.569Z,9.85
2022-10-31T05:16:13.191Z,9.63
2022-10-31T05:18:58.361Z,9.27
2022-10-31T05:21:43.733Z,10.15
2022-10-31T05:24:11.655Z,9.80
2022-10-31T05:26:40.728Z,9.68
2022-10-31T05:29:07.527Z,10.57
2022-10-31T05:31:34.872Z,11.07
2022-10-31T05:34:03.043Z,10.38
2022-10-31T05:37:02.128Z,10.25
2022-10-31T05:39:28.950Z,9.90
2022-10-31T05:42:06.328Z,9.75
2022-10-31T05:44:33.136Z,9.73
2022-10-31T05:47:20.153Z,9.20
2022-10-31T05:49:55.841Z,9.32
2022-10-31T05:52:42.550Z,9.90
2022-10-31T05:55:31.434Z,9.85
2022-10-31T05:58:04.753Z,10.73
2022-10-31T06:00:36.050Z,10.35
2022-10-31T06:05:50.765Z,9.90
2022-10-31T06:08:24.487Z,10.60
2022-10-31T06:10:51.812Z,10.10
2022-10-31T06:13:25.440Z,10.20
2022-10-31T06:15:59.531Z,11.40
2022-10-31T06:18:33.019Z,10.45
2022-10-31T06:21:00.236Z,10.45
2022-10-31T06:23:27.023Z,10.50
2022-10-31T06:26:10.719Z,11.70
2022-10-31T06:28:37.831Z,10.18
2022-10-31T06:31:17.838Z,10.90
2022-10-31T06:33:44.677Z,10.77
2022-10-31T06:36:11.660Z,10.82
2022-10-31T06:38:38.428Z,10.05
2022-10-31T06:41:08.101Z,10.38
2022-10-31T06:43:54.249Z,10.88
2022-10-31T06:46:40.756Z,11.20
2022-10-31T06:52:15.301Z,10.55
2022-10-31T06:54:42.084Z,10.95
2022-10-31T06:57:09.387Z,11.23
2022-10-31T06:59:38.194Z,12.18
2022-10-31T07:02:31.199Z,11.60
2022-10-31T07:04:59.706Z,11.70
2022-10-31T07:07:26.767Z,12.15
2022-10-31T07:09:54.183Z,11.50
2022-10-31T07:12:34.804Z,11.55
2022-10-31T07:15:01.773Z,11.57
2022-10-31T07:17:30.081Z,12.07
2022-10-31T07:20:00.064Z,11.75
2022-10-31T07:22:36.583Z,12.15
2022-10-31T07:25:05.831Z,13.45
2022-10-31T07:27:44.380Z,13.15
2022-10-31T07:30:14.078Z,12.57
2022-10-31T07:32:52.720Z,12.40
2022-10-31T07:35:30.458Z,12.57
2022-10-31T07:37:59.315Z,13.13
2022-10-31T07:40:26.535Z,15.45
2022-10-31T07:42:54.360Z,15.82
2022-10-31T07:45:52.153Z,15.25
2022-10-31T07:48:37.609Z,14.48
2022-10-31T07:51:25.131Z,13.52
2022-10-31T07:54:10.348Z,14.40
2022-10-31T07:56:38.032Z,13.45
2022-10-31T07:59:06.713Z,13.65
2022-10-31T08:01:33.475Z,13.57
2022-10-31T08:04:20.508Z,16.10
2022-10-31T08:07:06.145Z,13.73
2022-10-31T08:09:36.383Z,11.13
2022-10-31T08:12:11.697Z,12.15
2022-10-31T08:14:38.713Z,12.63
2022-10-31T08:17:06.109Z,11.90
2022-10-31T08:19:41.788Z,12.13
2022-10-31T08:27:11.031Z,11.50
2022-10-31T08:29:39.655Z,11.80
2022-10-31T08:32:07.264Z,11.88
2022-10-31T08:34:52.678Z,11.85
2022-10-31T08:37:39.821Z,12.02
2022-10-31T08:40:09.036Z,13.20
2022-10-31T08:42:35.991Z,13.20
2022-10-31T08:45:03.440Z,13.43
2022-10-31T08:47:32.623Z,13.10
2022-10-31T08:49:59.553Z,12.10
2022-10-31T08:52:51.051Z,13.13
2022-10-31T08:55:14.637Z,12.05
2022-10-31T08:58:00.509Z,12.30
2022-10-31T09:00:37.127Z,13.15
2022-10-31T09:03:29.713Z,12.77
2022-10-31T09:05:58.484Z,13.43
2022-10-31T09:08:27.282Z,12.43
2022-10-31T09:10:57.887Z,12.25
2022-10-31T09:13:44.876Z,12.10
2022-10-31T09:16:35.060Z,12.65
2022-10-31T09:19:01.917Z,12.25
2022-10-31T09:21:28.713Z,12.73
2022-10-31T09:23:58.834Z,12.82
2022-10-31T09:26:25.772Z,13.57
2022-10-31T09:29:14.630Z,13.05
2022-10-31T09:31:45.028Z,14.10
2022-10-31T09:34:27.262Z,13.27
2022-10-31T09:37:09.352Z,13.40
2022-10-31T09:39:36.348Z,12.80
2022-10-31T09:42:29.995Z,12.57
2022-10-31T09:47:54.041Z,12.60
2022-10-31T09:50:54.219Z,13.20
2022-10-31T09:53:55.476Z,13.43
2022-10-31T09:56:26.873Z,13.38
2022-10-31T09:59:01.714Z,12.98
2022-10-31T10:02:14.035Z,13.00
2022-10-31T10:04:45.940Z,13.07
2022-10-31T10:07:55.013Z,13.77
2022-10-31T10:11:04.927Z,13.60
2022-10-31T10:13:59.204Z,13.48
2022-10-31T10:17:08.395Z,13.20
2022-10-31T10:20:20.833Z,12.73
2022-10-31T10:23:06.296Z,13.00
2022-10-31T10:25:40.773Z,13.52
2022-10-31T10:28:19.741Z,13.48
2022-10-31T10:30:51.873Z,13.40
2022-10-31T10:33:45.201Z,13.07
2022-10-31T10:36:17.919Z,13.65
2022-10-31T10:38:56.296Z,12.85
2022-10-31T10:41:27.449Z,13.45
2022-10-31T10:43:57.297Z,13.13
2022-10-31T10:46:47.926Z,12.80
2022-10-31T10:49:36.174Z,13.60
2022-10-31T10:52:49.225Z,13.07
2022-10-31T10:55:24.857Z,13.50
2022-10-31T10:57:59.935Z,13.07
2022-10-31T11:00:42.422Z,13.50
2022-10-31T11:03:10.687Z,13.57
2022-10-31T11:05:41.902Z,13.05
2022-10-31T11:08:09.327Z,13.27
2022-10-31T11:10:36.960Z,12.20
2022-10-31T11:13:18.742Z,12.07
2022-10-31T11:15:53.976Z,11.85
2022-10-31T11:21:00.282Z,11.45
2022-10-31T11:23:29.133Z,11.57
2022-10-31T11:26:06.005Z,11.07
2022-10-31T11:28:35.974Z,12.18
2022-10-31T11:31:14.387Z,11.95
2022-10-31T11:33:49.464Z,11.93
2022-10-31T11:36:32.057Z,12.52
2022-10-31T11:39:02.172Z,11.93
2022-10-31T11:41:32.843Z,11.93
2022-10-31T11:46:42.069Z,12.75
2022-10-31T11:49:40.092Z,11.15
2022-10-31T11:52:15.575Z,11.90
2022-10-31T11:54:58.356Z,12.02
2022-10-31T11:57:32.687Z,11.50
2022-10-31T12:00:02.067Z,12.23
2022-10-31T12:02:38.982Z,11.25
2022-10-31T12:05:18.955Z,12.02
2022-10-31T12:07:45.738Z,10.90
2022-10-31T12:10:13.557Z,11.13
2022-10-31T12:12:46.032Z,11.70
2022-10-31T12:15:32.669Z,10.73
2022-10-31T12:18:43.051Z,10.25
2022-10-31T12:21:28.943Z,9.55
2022-10-31T12:24:05.001Z,10.75
2022-10-31T12:26:52.723Z,11.13
2022-10-31T12:29:47.337Z,10.73
2022-10-31T12:32:23.095Z,11.63
2022-10-31T12:34:50.080Z,11.52
2022-10-31T12:37:19.556Z,11.10
2022-10-31T12:40:00.210Z,10.75
2022-10-31T12:45:26.549Z,10.98
2022-10-31T12:48:02.232Z,11.02
2022-10-31T12:50:47.130Z,10.30
2022-10-31T12:53:44.954Z,11.57
2022-10-31T12:56:11.663Z,11.15
2022-10-31T12:58:44.888Z,11.13
2022-10-31T13:01:23.970Z,10.73
2022-10-31T13:03:55.513Z,10.50
2022-10-31T13:06:28.731Z,10.25
2022-10-31T13:09:00.949Z,10.65
2022-10-31T13:11:43.529Z,10.57
2022-10-31T13:14:34.198Z,10.52
2022-10-31T13:17:02.520Z,10.35
2022-10-31T13:19:33.163Z,10.90
2022-10-31T13:27:24.213Z,10.73
2022-10-31T13:30:05.641Z,10.93
2022-10-31T13:32:46.471Z,11.95
2022-10-31T13:35:21.545Z,10.90
2022-10-31T13:38:03.923Z,10.98
2022-10-31T13:40:42.748Z,11.27
2022-10-31T13:43:58.571Z,10.25
2022-10-31T13:46:33.200Z,10.68
2022-10-31T13:49:00.826Z,12.50
2022-10-31T13:51:35.024Z,12.48
2022-10-31T13:54:20.253Z,12.00
2022-10-31T13:56:52.416Z,11.98
2022-10-31T13:59:23.094Z,11.10
2022-10-31T14:04:38.097Z,10.00
2022-10-31T14:07:10.049Z,10.48
2022-10-31T14:09:49.183Z,10.60
2022-10-31T14:12:24.901Z,11.27
2022-10-31T14:14:59.631Z,12.02
2022-10-31T14:17:33.395Z,12.52
2022-10-31T14:20:02.613Z,11.90
2022-10-31T14:22:37.311Z,11.05
2022-10-31T14:25:45.562Z,11.15
2022-10-31T14:28:33.563Z,11.52
2022-10-31T14:31:01.912Z,11.35
2022-10-31T14:33:31.161Z,12.00
2022-10-31T14:36:20.015Z,11.20
2022-10-31T14:39:08.468Z,10.70
2022-10-31T14:41:37.882Z,10.65
2022-10-31T14:44:42.247Z,11.32
2022-10-31T14:47:23.973Z,11.80
2022-10-31T14:50:10.707Z,11.73
2022-10-31T14:52:39.534Z,12.30
2022-10-31T14:55:13.268Z,11.90
2022-10-31T14:57:50.408Z,11.80
2022-10-31T15:00:22.208Z,11.57
2022-10-31T15:03:13.396Z,11.93
2022-10-31T15:05:57.499Z,11.90
2022-10-31T15:08:28.855Z,12.32
2022-10-31T15:10:55.702Z,12.45
2022-10-31T15:13:23.356Z,12.98
2022-10-31T15:15:56.254Z,13.50
2022-10-31T15:18:26.893Z,13.50
2022-10-31T15:20:56.099Z,12.73
2022-10-31T15:23:29.154Z,13.32
2022-10-31T15:26:03.878Z,12.75
2022-10-31T15:28:32.418Z,12.77
2022-10-31T15:31:01.688Z,13.10
2022-10-31T15:33:37.541Z,12.43
2022-10-31T15:36:06.397Z,13.50
2022-10-31T15:38:34.030Z,13.82
2022-10-31T15:41:05.898Z,13.48
2022-10-31T15:43:38.496Z,12.32
2022-10-31T15:46:09.884Z,11.73
2022-10-31T15:48:36.734Z,12.13
2022-10-31T15:51:04.316Z,11.18
2022-10-31T15:53:49.861Z,11.98
2022-10-31T15:56:30.392Z,11.10
2022-10-31T15:58:59.806Z,11.55
2022-10-31T16:01:29.489Z,11.63
2022-10-31T16:04:23.938Z,11.90
2022-10-31T16:07:22.993Z,12.77
2022-10-31T16:09:59.007Z,13.10
2022-10-31T16:12:35.688Z,13.50
2022-10-31T16:15:04.204Z,12.80
2022-10-31T16:17:31.589Z,12.27
2022-10-31T16:20:02.058Z,11.70
2022-10-31T16:22:36.074Z,11.20
2022-10-31T16:25:15.848Z,13.15
2022-10-31T16:27:53.987Z,12.07
2022-10-31T16:30:40.231Z,12.48
2022-10-31T16:33:27.587Z,11.93
2022-10-31T16:36:04.479Z,12.95
2022-10-31T16:38:42.925Z,11.75
2022-10-31T16:41:09.801Z,11.35
2022-10-31T16:43:36.618Z,11.18
2022-10-31T16:46:04.627Z,12.05
2022-10-31T16:48:31.455Z,11.20
2022-10-31T16:50:58.184Z,11.80
2022-10-31T16:53:25.687Z,11.60
2022-10-31T16:55:56.471Z,11.70
2022-10-31T17:00:53.529Z,11.20
2022-10-31T17:03:20.822Z,10.98
2022-10-31T17:05:47.706Z,12.13
2022-10-31T17:08:14.733Z,12.00
2022-10-31T17:10:43.554Z,12.73
2022-10-31T17:13:19.747Z,12.27
2022-10-31T17:15:53.634Z,12.93
2022-10-31T17:18:26.083Z,12.10
2022-10-31T17:21:02.761Z,12.73
2022-10-31T17:23:31.776Z,12.70
2022-10-31T17:25:59.530Z,12.38
2022-10-31T17:28:30.789Z,12.05
2022-10-31T17:30:59.575Z,12.95
2022-10-31T17:33:27.043Z,13.25
2022-10-31T17:35:54.781Z,13.23
2022-10-31T17:38:24.144Z,13.07
2022-10-31T17:40:51.619Z,12.63
2022-10-31T17:43:19.123Z,13.60
2022-10-31T17:45:45.908Z,13.38
2022-10-31T17:48:13.189Z,13.10
2022-10-31T17:50:40.807Z,14.05
2022-10-31T17:53:07.852Z,12.70
2022-10-31T17:55:37.425Z,12.73
2022-10-31T17:58:05.411Z,13.13
2022-10-31T18:00:32.792Z,13.32
2022-10-31T18:03:00.076Z,14.55
2022-10-31T18:05:27.198Z,12.45
2022-10-31T18:07:54.264Z,11.98
2022-10-31T18:10:21.173Z,11.45
2022-10-31T18:12:48.865Z,10.85
2022-10-31T18:15:16.702Z,10.00
2022-10-31T18:17:44.204Z,10.80
2022-10-31T18:20:11.585Z,9.98
2022-10-31T18:22:38.434Z,9.85
2022-10-31T18:25:06.194Z,10.25
2022-10-31T18:27:32.990Z,10.00
2022-10-31T18:29:59.808Z,9.32
2022-10-31T18:32:26.538Z,9.77
2022-10-31T18:34:53.917Z,9.35
2022-10-31T18:37:20.704Z,9.77
2022-10-31T18:39:47.498Z,9.95
2022-10-31T18:42:14.292Z,10.10
2022-10-31T18:44:41.275Z,9.63
2022-10-31T18:47:08.093Z,9.23
2022-10-31T18:49:34.849Z,8.90
2022-10-31T18:52:01.576Z,9.90
2022-10-31T18:54:28.432Z,9.63
2022-10-31T18:56:56.006Z,10.02
2022-10-31T18:59:22.883Z,9.60
2022-10-31T19:01:49.844Z,9.63
2022-10-31T19:04:16.692Z,9.27
2022-10-31T19:06:43.473Z,9.63
2022-10-31T19:09:10.890Z,9.65
2022-10-31T19:11:38.801Z,9.73
2022-10-31T19:14:08.544Z,8.88
2022-10-31T19:16:36.348Z,9.23
2022-10-31T19:19:03.393Z,8.90
2022-10-31T19:21:32.402Z,9.30
2022-10-31T19:24:00.409Z,9.90
2022-10-31T19:26:28.268Z,9.25
2022-10-31T19:28:56.546Z,10.10
2022-10-31T19:31:23.682Z,9.82
2022-10-31T19:33:50.450Z,9.85
2022-10-31T19:36:18.925Z,10.38
2022-10-31T19:38:48.212Z,10.98
2022-10-31T19:41:26.185Z,10.77
2022-10-31T19:43:54.067Z,10.38
2022-10-31T19:46:40.445Z,11.05
2022-10-31T19:49:11.896Z,11.15
2022-10-31T19:51:38.829Z,11.85
2022-10-31T19:54:06.289Z,10.95
2022-10-31T19:56:33.057Z,11.18
2022-10-31T19:58:59.951Z,11.10
2022-10-31T20:01:26.716Z,11.13
2022-10-31T20:03:53.606Z,10.70
2022-10-31T20:06:33.044Z,11.05
2022-10-31T20:09:05.324Z,10.80
2022-10-31T20:11:32.084Z,10.10
2022-10-31T20:14:00.130Z,10.73
2022-10-31T20:16:28.029Z,10.02
2022-10-31T20:18:55.530Z,11.40
2022-10-31T20:21:26.461Z,11.88
2022-10-31T20:24:01.490Z,11.20
2022-10-31T20:26:29.574Z,11.43
2022-10-31T20:28:57.602Z,11.52
2022-10-31T20:31:27.929Z,12.32
2022-10-31T20:33:55.914Z,12.60
2022-10-31T20:36:23.471Z,12.38
2022-10-31T20:38:52.081Z,12.35
2022-10-31T20:41:19.628Z,12.18
2022-10-31T20:43:46.611Z,13.10
2022-10-31T20:46:23.560Z,12.20
2022-10-31T20:48:51.938Z,11.70
2022-10-31T20:51:22.563Z,10.63
2022-10-31T20:53:51.633Z,11.88
2022-10-31T20:56:20.548Z,12.60
2022-10-31T20:58:48.369Z,12.30
2022-10-31T21:01:27.312Z,12.25
2022-10-31T21:03:58.485Z,12.05
2022-10-31T21:06:27.137Z,11.27
2022-10-31T21:08:54.728Z,11.52
2022-10-31T21:11:23.601Z,11.82
2022-10-31T21:13:51.105Z,11.60
2022-10-31T21:16:22.260Z,12.43
2022-10-31T21:18:49.906Z,12.15
2022-10-31T21:21:30.652Z,11.98
2022-10-31T21:24:03.360Z,12.63
2022-10-31T21:26:33.728Z,11.98
2022-10-31T21:29:01.912Z,12.13
2022-10-31T21:31:29.408Z,11.57
2022-10-31T21:33:56.402Z,10.93
2022-10-31T21:36:23.827Z,10.85
2022-10-31T21:38:51.820Z,10.50
2022-10-31T21:41:20.278Z,11.73
2022-10-31T21:43:49.169Z,11.05
2022-10-31T21:46:18.662Z,11.75
2022-10-31T21:48:46.392Z,11.68
2022-10-31T21:51:16.421Z,11.35
2022-10-31T21:54:02.249Z,11.83
2022-10-31T21:56:29.634Z,11.50
2022-10-31T21:58:56.402Z,12.02
2022-10-31T22:01:25.201Z,10.85
2022-10-31T22:03:52.208Z,11.02
2022-10-31T22:06:19.220Z,11.45
2022-10-31T22:08:46.141Z,10.90
2022-10-31T22:11:15.633Z,10.90
2022-10-31T22:13:44.468Z,11.20
2022-10-31T22:16:13.796Z,12.07
2022-10-31T22:18:41.591Z,11.40
2022-10-31T22:21:17.506Z,11.18
2022-10-31T22:23:44.915Z,10.60
2022-10-31T22:26:14.514Z,11.00
2022-10-31T22:28:43.006Z,11.77
2022-10-31T22:33:45.374Z,11.30
2022-10-31T22:36:15.573Z,10.65
2022-10-31T22:38:43.077Z,11.43
2022-10-31T22:41:12.737Z,11.15
2022-10-31T22:43:39.933Z,10.93
2022-10-31T22:46:08.746Z,11.05
2022-10-31T22:48:38.352Z,11.75
2022-10-31T22:51:06.868Z,11.23
2022-10-31T22:53:36.029Z,10.68
2022-10-31T22:56:04.552Z,10.30
2022-10-31T22:58:35.495Z,9.88
2022-10-31T23:01:16.909Z,10.13
2022-10-31T23:03:45.840Z,9.85
2022-10-31T23:06:16.151Z,9.93
2022-10-31T23:08:44.303Z,9.98
2022-10-31T23:11:26.497Z,11.30
2022-10-31T23:14:14.022Z,10.65
2022-10-31T23:16:43.143Z,10.57
2022-10-31T23:19:12.938Z,10.55
2022-10-31T23:22:00.554Z,10.80
2022-10-31T23:24:43.282Z,10.68
2022-10-31T23:27:16.189Z,10.80
2022-10-31T23:29:54.125Z,10.35
2022-10-31T23:32:31.293Z,11.38
2022-10-31T23:35:04.358Z,10.65
2022-10-31T23:37:35.136Z,10.60
2022-10-31T23:40:02.566Z,11.43
2022-10-31T23:42:30.065Z,10.48
2022-10-31T23:44:57.547Z,11.43
2022-10-31T23:47:24.976Z,11.30
2022-10-31T23:49:54.738Z,10.68
2022-10-31T23:52:22.076Z,10.60
2022-10-31T23:54:49.739Z,11.38
2022-10-31T23:57:17.754Z,10.75
2022-10-31T23:59:45.936Z,10.90
